This is the latest recevied weather packets stored in our database for station/object OE-11213. If no packets are shown the sender has not sent any weather packets the latest 10 day(s).
| Time | Temp. | Humidity | Pressure | Rain* | Wind** | Luminosity | Snow |
|---|---|---|---|---|---|---|---|
| 1787975130 | 20° C | 60% | 1014.3 hPa | 0 mm | - | 0 W/m² | - |
| 1787974529 | 20° C | 61% | 1014.4 hPa | 0 mm | - | 0 W/m² | - |
| 1787973930 | 20° C | 62% | 1014.2 hPa | 0 mm | - | 0 W/m² | - |
| 1787973102 | 20.56° C | 61% | 1014 hPa | 0 mm | - | 0 W/m² | - |
| 1787972730 | 20.56° C | 61% | 1013.8 hPa | 0 mm | - | 0 W/m² | - |
| 1787972130 | 21.11° C | 62% | 1013.4 hPa | 0 mm | - | 0 W/m² | - |
| 1787971303 | 21.11° C | 66% | 1013.3 hPa | 0 mm | - | 0 W/m² | - |
| 1787970930 | 20° C | 70% | 1012.9 hPa | 0 mm | - | 0 W/m² | - |
| 1787970330 | 19.44° C | 88% | 1013.1 hPa | 0 mm | - | 0 W/m² | - |
| 1787969502 | 20° C | 88% | 1012.7 hPa | 0 mm | - | 0 W/m² | - |
| 1787969129 | 20° C | 87% | 1012.5 hPa | 0 mm | - | 0 W/m² | - |
| 1787968530 | 19.44° C | 87% | 1012.3 hPa | 0 mm | - | 0 W/m² | - |
| 1787967702 | 20° C | 86% | 1011.9 hPa | 0 mm | - | 0 W/m² | - |
| 1787967330 | 20.56° C | 83% | 1012.3 hPa | 0 mm | - | 0 W/m² | - |
| 1787966730 | 21.11° C | 78% | 1012.2 hPa | 0.25 mm | - | 0 W/m² | - |
| 1787965903 | 21.11° C | 82% | 1012.2 hPa | 0.25 mm | - | 0 W/m² | - |
| 1787964930 | 20.56° C | 84% | 1012.3 hPa | 0.25 mm | - | 0 W/m² | - |
| 1787964103 | 20.56° C | 82% | 1012.4 hPa | 0.25 mm | - | 0 W/m² | - |
| 1787963730 | 21.11° C | 82% | 1012.3 hPa | 0 mm | - | 0 W/m² | - |
| 1787963129 | 20.56° C | 85% | 1012.5 hPa | 0 mm | - | 0 W/m² | - |
| 1787962302 | 21.11° C | 81% | 1011.8 hPa | 0 mm | - | 0 W/m² | - |
| 1787961929 | 20.56° C | 83% | 1012.1 hPa | 0 mm | - | 0 W/m² | - |
| 1787961330 | 21.11° C | 84% | 1012 hPa | 0 mm | - | 0 W/m² | - |
| 1787960503 | 21.11° C | 82% | 1012 hPa | 0 mm | - | 0 W/m² | - |
| 1787960130 | 21.11° C | 78% | 1012 hPa | 0 mm | - | 0 W/m² | - |
* Rain latest hour (hover to see other rain measurements)
** Current wind speed in m/s (hover to see current wind gust speed)